Terminal Aerodrome Forecast
Issued by NWS Memphis, TN

Home | Current Version | Previous Version | Text Only | Print | Product List | Glossary On
Versions: 1 2 3 4 5 6 7 8 9 10 11 12 13 14 15 16 17 18 19
097
FTUS44 KMEG 260018 AAA
TAFMKL
TAF AMD
KMKL 260018Z 2600/2624 19004KT P6SM BKN090
     FM260900 20003KT 4SM BR BCFG BKN010
     FM261600 19009KT P6SM SCT120 BKN250=

USA.gov is the U.S. government's official web portal to all federal, state and local government web resources and services.